Terminal Aerodrome Forecast
Issued by NWS

Current Version | Previous Version | Text Only | Print | Product List | Glossary On
Versions: 1 2 3 4 5 6 7 8 9 10 11 12 13 14 15 16 17 18 19 20
000
FTUS42 TJSJ 230200 AAB
TAFJSJ
TAF AMD
TJSJ 230256Z 2303/2324 VRB04KT P6SM VCSH SCT030 BKN050
     FM231000 09012KT P6SM VCTS SCT025CB BKN040
     FM231900 09010KT P6SM VCSH SCT025 BKN050
     FM232300 VRB04KT P6SM VCSH SCT030 BKN050=

USA.gov is the U.S. government's official web portal to all federal, state and local government web resources and services.